Time;durP1;ratioP1;P1;durP2;ratioP2;P2;SDS_P1;SDS_P2;PMS_P1;PMS_P2;Temp;Humidity;BMP_temperature;BMP_pressure;BME280_temperature;BME280_humidity;BME280_pressure;Samples;Min_cycle;Max_cycle;Signal;HPM_P1;HPM_P2
2022/01/19 00:01:34;;;;;;;8.53;5.83;;;;;;;;;;5039640;28;20217;-88
2022/01/19 00:04:02;;;;;;;14.40;6.13;;;;;;;;;;5039008;28;20611;-88
2022/01/19 00:06:29;;;;;;;7.50;5.43;;;;;;;;;;5046410;28;20646;-89
2022/01/19 00:08:56;;;;;;;8.43;5.60;;;;;;;;;;5055392;28;20696;-88
2022/01/19 00:11:24;;;;;;;7.37;5.17;;;;;;;;;;5052112;28;20214;-89
2022/01/19 00:13:53;;;;;;;7.53;5.53;;;;;;;;;;5030772;28;20695;-89
2022/01/19 00:16:21;;;;;;;9.23;5.37;;;;;;;;;;5047386;28;20218;-88
2022/01/19 00:18:49;;;;;;;11.13;5.87;;;;;;;;;;5055070;28;20256;-88
2022/01/19 00:21:16;;;;;;;9.13;6.57;;;;;;;;;;5051056;28;20586;-89
2022/01/19 00:23:43;;;;;;;8.13;6.03;;;;;;;;;;5025602;28;20277;-89
2022/01/19 00:26:11;;;;;;;9.67;7.07;;;;;;;;;;5044750;28;20202;-88
2022/01/19 00:28:38;;;;;;;14.87;6.00;;;;;;;;;;5054766;28;20289;-88
2022/01/19 00:31:07;;;;;;;11.57;6.40;;;;;;;;;;5052632;28;20216;-88
2022/01/19 00:33:34;;;;;;;8.77;6.63;;;;;;;;;;5024069;28;20288;-89
2022/01/19 00:36:01;;;;;;;9.80;6.60;;;;;;;;;;5042459;28;20582;-88
2022/01/19 00:38:29;;;;;;;11.20;5.83;;;;;;;;;;5034967;28;20226;-88
2022/01/19 00:40:57;;;;;;;9.37;5.83;;;;;;;;;;5028353;28;20214;-89
2022/01/19 00:43:25;;;;;;;8.27;5.60;;;;;;;;;;5031108;28;20203;-88
2022/01/19 00:45:52;;;;;;;9.13;5.83;;;;;;;;;;5051576;28;20815;-90
2022/01/19 00:48:21;;;;;;;10.60;6.67;;;;;;;;;;5045838;28;20312;-88
2022/01/19 00:50:48;;;;;;;8.57;6.17;;;;;;;;;;5028489;28;20257;-88
2022/01/19 00:53:15;;;;;;;10.27;6.43;;;;;;;;;;5045883;28;20271;-88
2022/01/19 00:55:42;;;;;;;9.80;6.17;;;;;;;;;;5048550;28;20292;-90
2022/01/19 00:58:10;;;;;;;8.63;6.57;;;;;;;;;;5029082;28;20296;-88
2022/01/19 01:00:38;;;;;;;9.13;5.70;;;;;;;;;;5035498;28;20211;-88
2022/01/19 01:03:05;;;;;;;8.87;5.97;;;;;;;;;;5034608;28;20209;-89
2022/01/19 01:05:34;;;;;;;7.60;5.87;;;;;;;;;;5023943;28;20210;-88
2022/01/19 01:08:02;;;;;;;9.77;6.33;;;;;;;;;;5034740;28;20233;-88
2022/01/19 01:10:30;;;;;;;11.40;6.03;;;;;;;;;;5034540;28;20268;-88
2022/01/19 01:13:16;;;;;;;8.73;5.57;;;;;;;;;;5029703;28;20225;-88
2022/01/19 01:16:00;;;;;;;11.27;6.70;;;;;;;;;;5029373;28;20222;-88
2022/01/19 01:18:28;;;;;;;13.10;6.87;;;;;;;;;;5041010;28;20321;-88
2022/01/19 01:20:58;;;;;;;12.17;6.80;;;;;;;;;;5054033;28;20213;-88
2022/01/19 01:23:26;;;;;;;10.70;6.37;;;;;;;;;;5042566;28;20206;-89
2022/01/19 01:25:55;;;;;;;9.80;5.97;;;;;;;;;;5044381;28;20210;-88
2022/01/19 01:28:22;;;;;;;10.63;6.30;;;;;;;;;;5033803;28;20230;-88
2022/01/19 01:30:50;;;;;;;9.93;6.10;;;;;;;;;;5030093;28;20308;-88
2022/01/19 01:33:18;;;;;;;8.63;5.90;;;;;;;;;;5032034;28;20679;-87
2022/01/19 01:35:45;;;;;;;8.30;5.50;;;;;;;;;;5044792;28;20630;-88
2022/01/19 01:38:14;;;;;;;9.87;5.33;;;;;;;;;;5053659;28;20226;-89
2022/01/19 01:40:41;;;;;;;8.57;5.83;;;;;;;;;;5038339;28;20209;-88
2022/01/19 01:43:10;;;;;;;7.77;5.30;;;;;;;;;;5042369;28;20210;-88
2022/01/19 01:45:42;;;;;;;6.83;4.70;;;;;;;;;;5048482;28;20202;-88
2022/01/19 01:48:12;;;;;;;6.70;4.90;;;;;;;;;;5042093;28;20281;-87
2022/01/19 01:53:27;;;;;;;8.83;5.03;;;;;;;;;;5030197;28;20199;-88
2022/01/19 01:55:56;;;;;;;8.53;5.60;;;;;;;;;;5016103;28;20238;-88
2022/01/19 01:58:23;;;;;;;6.80;4.80;;;;;;;;;;5035619;28;20242;-88
2022/01/19 02:01:02;;;;;;;8.33;4.83;;;;;;;;;;5035197;28;20250;-88
2022/01/19 02:03:37;;;;;;;10.27;5.97;;;;;;;;;;5028425;28;20255;-89
2022/01/19 02:08:53;;;;;;;8.73;5.10;;;;;;;;;;5052367;28;20862;-88
2022/01/19 02:22:35;;;;;;;8.43;5.00;;;;;;;;;;5029096;28;20213;-88
2022/01/19 02:25:04;;;;;;;8.80;5.00;;;;;;;;;;5040717;28;20207;-88
2022/01/19 02:41:28;;;;;;;8.10;5.33;;;;;;;;;;4975617;28;20707;-88
2022/01/19 02:43:57;;;;;;;8.33;5.63;;;;;;;;;;5025832;28;20214;-87
2022/01/19 02:46:42;;;;;;;6.60;4.80;;;;;;;;;;5043651;28;20206;-88
2022/01/19 02:49:15;;;;;;;9.20;5.27;;;;;;;;;;5035248;28;20225;-88
2022/01/19 02:51:44;;;;;;;9.80;5.70;;;;;;;;;;5036892;28;20656;-88
2022/01/19 02:54:12;;;;;;;6.57;4.90;;;;;;;;;;5030199;28;20210;-87
2022/01/19 02:56:43;;;;;;;8.53;5.30;;;;;;;;;;5026884;28;20246;-88
2022/01/19 02:59:16;;;;;;;6.77;4.73;;;;;;;;;;5040223;28;20593;-88
2022/01/19 03:09:59;;;;;;;6.97;4.97;;;;;;;;;;5032370;28;20318;-89
2022/01/19 03:12:27;;;;;;;8.23;5.17;;;;;;;;;;5030097;28;20241;-87
2022/01/19 03:14:54;;;;;;;8.73;7.13;;;;;;;;;;5030406;28;20664;-88
2022/01/19 03:17:21;;;;;;;7.03;5.57;;;;;;;;;;5044603;28;20370;-88
2022/01/19 03:19:49;;;;;;;10.00;6.17;;;;;;;;;;5052364;28;20410;-88
2022/01/19 03:22:20;;;;;;;10.87;5.93;;;;;;;;;;5036013;28;20558;-88
2022/01/19 03:24:50;;;;;;;7.47;5.10;;;;;;;;;;5040161;28;20648;-88
2022/01/19 03:27:18;;;;;;;8.90;6.47;;;;;;;;;;5036119;28;20206;-88
2022/01/19 03:29:45;;;;;;;7.10;5.07;;;;;;;;;;5032033;28;20285;-88
2022/01/19 03:32:13;;;;;;;8.53;5.60;;;;;;;;;;5033986;28;20197;-88
2022/01/19 03:34:41;;;;;;;10.30;5.43;;;;;;;;;;5055497;28;20279;-89
2022/01/19 03:37:08;;;;;;;8.10;5.80;;;;;;;;;;5055889;28;20225;-88
2022/01/19 03:39:37;;;;;;;7.93;4.90;;;;;;;;;;5046014;28;20308;-88
2022/01/19 03:42:06;;;;;;;8.07;5.03;;;;;;;;;;5024130;28;20215;-88
2022/01/19 03:44:33;;;;;;;7.20;6.03;;;;;;;;;;5049538;28;20832;-87
2022/01/19 03:47:03;;;;;;;8.53;5.73;;;;;;;;;;5030141;28;20196;-89
2022/01/19 03:49:33;;;;;;;10.53;5.93;;;;;;;;;;5016526;28;20246;-88
2022/01/19 03:52:02;;;;;;;9.80;5.90;;;;;;;;;;5025682;28;20207;-89
2022/01/19 03:54:30;;;;;;;8.97;5.37;;;;;;;;;;5043684;28;20203;-88
2022/01/19 03:56:59;;;;;;;10.03;6.37;;;;;;;;;;5028938;28;20284;-89
2022/01/19 03:59:27;;;;;;;7.17;5.00;;;;;;;;;;5022389;28;20252;-90
2022/01/19 04:01:54;;;;;;;8.80;6.07;;;;;;;;;;5029095;28;20207;-88
2022/01/19 04:04:34;;;;;;;10.63;5.23;;;;;;;;;;5037112;28;20210;-88
2022/01/19 04:07:08;;;;;;;8.27;5.83;;;;;;;;;;5030392;28;20207;-88
2022/01/19 04:09:36;;;;;;;14.63;6.43;;;;;;;;;;5035561;28;20308;-88
2022/01/19 04:12:05;;;;;;;8.27;5.13;;;;;;;;;;5042915;28;20557;-88
2022/01/19 04:14:33;;;;;;;12.47;6.30;;;;;;;;;;5035601;28;20456;-87
2022/01/19 04:17:01;;;;;;;10.37;5.90;;;;;;;;;;5041582;28;20229;-87
2022/01/19 04:19:32;;;;;;;9.63;5.90;;;;;;;;;;5034806;28;20317;-87
2022/01/19 04:22:00;;;;;;;9.37;5.43;;;;;;;;;;5053141;28;20236;-88
2022/01/19 04:24:27;;;;;;;8.30;6.33;;;;;;;;;;5055203;28;20210;-88
2022/01/19 04:29:41;;;;;;;10.90;6.00;;;;;;;;;;5029211;28;20226;-88
2022/01/19 04:32:12;;;;;;;7.40;4.60;;;;;;;;;;5033290;28;20207;-89
2022/01/19 04:34:42;;;;;;;7.60;5.27;;;;;;;;;;5026520;28;20218;-87
2022/01/19 04:48:24;;;;;;;8.40;5.33;;;;;;;;;;5034612;28;20237;-88
2022/01/19 05:02:02;;;;;;;6.97;4.93;;;;;;;;;;5034929;28;20282;-89
2022/01/19 05:04:35;;;;;;;6.77;5.40;;;;;;;;;;5041039;28;20199;-88
2022/01/19 05:07:14;;;;;;;7.93;5.47;;;;;;;;;;5029057;28;20540;-89
2022/01/19 05:15:20;;;;;;;7.03;5.37;;;;;;;;;;5025344;28;20193;-89
2022/01/19 05:17:49;;;;;;;7.57;5.50;;;;;;;;;;5036319;28;20254;-88
2022/01/19 05:20:16;;;;;;;9.27;5.70;;;;;;;;;;5026387;28;20210;-88
2022/01/19 05:22:43;;;;;;;6.63;5.60;;;;;;;;;;5032635;28;20233;-89
2022/01/19 05:25:11;;;;;;;10.00;6.17;;;;;;;;;;5029747;28;20218;-88
2022/01/19 05:27:38;;;;;;;9.13;5.50;;;;;;;;;;5033210;28;20250;-88
2022/01/19 05:30:05;;;;;;;9.50;5.87;;;;;;;;;;5028163;28;20211;-88
2022/01/19 05:32:33;;;;;;;10.20;5.10;;;;;;;;;;5039880;28;20215;-88
2022/01/19 05:35:01;;;;;;;11.13;5.63;;;;;;;;;;5051397;28;20257;-88
2022/01/19 05:37:30;;;;;;;8.50;6.07;;;;;;;;;;5050463;28;20218;-88
2022/01/19 05:39:57;;;;;;;8.57;5.60;;;;;;;;;;5029717;28;20210;-88
2022/01/19 05:42:24;;;;;;;9.33;6.10;;;;;;;;;;5053365;28;20210;-89
2022/01/19 05:44:51;;;;;;;10.30;5.70;;;;;;;;;;5036666;28;20640;-88
2022/01/19 05:47:19;;;;;;;7.77;5.60;;;;;;;;;;5033444;28;20667;-88
2022/01/19 05:49:46;;;;;;;9.37;5.60;;;;;;;;;;5031987;28;20296;-88
2022/01/19 05:52:15;;;;;;;8.70;6.40;;;;;;;;;;5045189;28;20221;-88
2022/01/19 05:54:42;;;;;;;11.30;6.47;;;;;;;;;;5053735;28;20236;-88
2022/01/19 05:57:10;;;;;;;10.70;6.13;;;;;;;;;;5032138;28;20286;-88
2022/01/19 05:59:37;;;;;;;8.10;5.40;;;;;;;;;;5027971;28;20219;-88
2022/01/19 06:02:05;;;;;;;8.90;5.43;;;;;;;;;;5038416;28;20629;-89
2022/01/19 06:04:32;;;;;;;10.17;6.13;;;;;;;;;;5018341;28;20203;-88
2022/01/19 06:07:02;;;;;;;10.10;6.17;;;;;;;;;;5032200;28;20262;-88
2022/01/19 06:09:35;;;;;;;11.53;6.27;;;;;;;;;;5043089;28;20233;-88
2022/01/19 06:12:05;;;;;;;9.53;5.43;;;;;;;;;;5040090;28;20211;-88
2022/01/19 06:14:33;;;;;;;7.63;6.00;;;;;;;;;;5025801;28;20215;-87
2022/01/19 06:17:00;;;;;;;11.07;5.47;;;;;;;;;;5033393;28;20210;-88
2022/01/19 06:19:27;;;;;;;9.40;5.20;;;;;;;;;;5033282;28;20281;-88
2022/01/19 06:21:55;;;;;;;8.33;5.13;;;;;;;;;;5028373;28;20210;-87
2022/01/19 06:24:22;;;;;;;9.97;6.47;;;;;;;;;;5042752;28;20613;-87
2022/01/19 06:26:51;;;;;;;12.23;6.70;;;;;;;;;;5052933;28;20209;-89
2022/01/19 06:29:18;;;;;;;9.50;6.33;;;;;;;;;;5016280;28;20227;-87
2022/01/19 06:31:45;;;;;;;8.33;5.67;;;;;;;;;;5032159;28;20214;-87
2022/01/19 06:34:13;;;;;;;9.33;7.27;;;;;;;;;;5027323;28;20214;-87
2022/01/19 06:36:40;;;;;;;12.23;5.43;;;;;;;;;;5027527;28;20337;-88
2022/01/19 06:39:07;;;;;;;9.53;6.07;;;;;;;;;;5032642;28;20226;-88
2022/01/19 06:41:35;;;;;;;9.40;6.03;;;;;;;;;;5050169;28;20202;-88
2022/01/19 06:44:04;;;;;;;11.63;6.40;;;;;;;;;;5034561;28;20209;-88
2022/01/19 06:46:31;;;;;;;14.30;7.53;;;;;;;;;;5032879;28;20215;-88
2022/01/19 06:48:59;;;;;;;13.83;7.37;;;;;;;;;;5027897;28;20226;-88
2022/01/19 06:51:27;;;;;;;15.23;7.30;;;;;;;;;;5044630;28;20540;-88
2022/01/19 06:53:54;;;;;;;19.27;9.47;;;;;;;;;;5054623;28;20638;-88
2022/01/19 06:56:21;;;;;;;16.30;8.97;;;;;;;;;;5040122;28;20214;-88
2022/01/19 06:58:48;;;;;;;14.33;7.10;;;;;;;;;;5055039;28;20225;-90
2022/01/19 07:01:17;;;;;;;9.77;7.23;;;;;;;;;;5054675;28;20205;-88
2022/01/19 07:03:45;;;;;;;17.50;9.30;;;;;;;;;;5053179;28;20206;-88
2022/01/19 07:06:12;;;;;;;14.77;7.50;;;;;;;;;;5042712;28;20276;-89
2022/01/19 07:08:39;;;;;;;15.97;8.90;;;;;;;;;;5045625;28;20217;-89
2022/01/19 07:11:07;;;;;;;14.53;8.90;;;;;;;;;;5053933;28;20655;-88
2022/01/19 07:13:34;;;;;;;16.60;8.37;;;;;;;;;;5033241;28;20241;-88
2022/01/19 07:16:01;;;;;;;16.20;8.90;;;;;;;;;;5042406;28;20789;-89
2022/01/19 07:18:30;;;;;;;18.23;8.60;;;;;;;;;;5049740;28;20229;-90
2022/01/19 07:20:58;;;;;;;10.10;6.77;;;;;;;;;;5038991;28;20237;-88
2022/01/19 07:23:25;;;;;;;12.43;7.90;;;;;;;;;;5045668;28;20260;-88
2022/01/19 07:25:52;;;;;;;11.17;7.20;;;;;;;;;;5053915;28;20213;-88
2022/01/19 07:28:20;;;;;;;15.40;7.97;;;;;;;;;;5052881;28;20226;-89
2022/01/19 07:30:47;;;;;;;15.73;8.20;;;;;;;;;;5040982;28;20206;-88
2022/01/19 07:33:14;;;;;;;13.63;6.83;;;;;;;;;;5038130;28;20225;-89
2022/01/19 07:35:45;;;;;;;12.30;6.83;;;;;;;;;;5054057;28;20674;-87
2022/01/19 07:38:12;;;;;;;13.43;8.17;;;;;;;;;;5048838;28;20225;-88
2022/01/19 07:40:40;;;;;;;14.03;8.00;;;;;;;;;;5040051;28;20260;-91
2022/01/19 07:43:08;;;;;;;14.97;7.57;;;;;;;;;;5044809;28;20236;-88
2022/01/19 07:45:35;;;;;;;14.57;7.87;;;;;;;;;;5053305;28;20594;-87
2022/01/19 07:48:03;;;;;;;9.90;6.70;;;;;;;;;;5047207;28;20280;-90
2022/01/19 07:50:30;;;;;;;10.23;6.93;;;;;;;;;;5039490;28;20213;-89
2022/01/19 07:52:59;;;;;;;13.27;7.70;;;;;;;;;;5036334;28;20210;-88
2022/01/19 07:55:27;;;;;;;12.83;7.90;;;;;;;;;;5034015;28;20278;-88
2022/01/19 07:57:54;;;;;;;13.23;7.57;;;;;;;;;;5042400;28;20234;-89
2022/01/19 08:00:22;;;;;;;13.17;7.23;;;;;;;;;;5053788;28;20392;-89
2022/01/19 08:02:50;;;;;;;13.00;7.67;;;;;;;;;;5037637;28;20264;-88
2022/01/19 08:05:18;;;;;;;10.60;7.10;;;;;;;;;;5032342;28;20565;-89
2022/01/19 08:07:45;;;;;;;19.00;11.03;;;;;;;;;;5042410;28;20222;-88
2022/01/19 08:10:15;;;;;;;21.63;12.50;;;;;;;;;;5044507;28;20232;-88
2022/01/19 08:12:43;;;;;;;25.53;12.40;;;;;;;;;;5036526;28;20214;-88
2022/01/19 08:15:11;;;;;;;19.80;8.83;;;;;;;;;;5026697;28;20203;-88
2022/01/19 08:17:38;;;;;;;15.37;8.77;;;;;;;;;;5044134;28;20284;-88
2022/01/19 08:20:06;;;;;;;10.97;7.07;;;;;;;;;;5036094;28;20234;-88
2022/01/19 08:22:33;;;;;;;12.10;6.77;;;;;;;;;;5043233;28;20195;-88
2022/01/19 08:25:01;;;;;;;14.47;8.00;;;;;;;;;;5036959;28;20307;-88
2022/01/19 08:27:31;;;;;;;15.30;9.43;;;;;;;;;;5036839;28;20199;-88
2022/01/19 08:30:00;;;;;;;13.43;7.47;;;;;;;;;;5045067;28;20205;-88
2022/01/19 08:32:27;;;;;;;11.00;7.43;;;;;;;;;;5048472;28;20655;-88
2022/01/19 08:34:55;;;;;;;11.43;7.43;;;;;;;;;;5041705;28;20219;-89
2022/01/19 08:37:22;;;;;;;11.13;7.37;;;;;;;;;;5042681;28;20209;-89
2022/01/19 08:39:50;;;;;;;12.10;7.53;;;;;;;;;;5013090;28;20735;-92
2022/01/19 08:42:17;;;;;;;15.30;8.00;;;;;;;;;;5013338;28;20234;-90
2022/01/19 08:44:44;;;;;;;12.50;7.60;;;;;;;;;;5034615;28;20202;-89
2022/01/19 08:47:13;;;;;;;11.30;7.13;;;;;;;;;;5023260;28;20420;-89
2022/01/19 08:49:40;;;;;;;12.33;7.73;;;;;;;;;;5013900;28;20284;-91
2022/01/19 08:52:08;;;;;;;13.07;8.57;;;;;;;;;;5031193;28;20207;-88
2022/01/19 08:54:35;;;;;;;11.70;8.47;;;;;;;;;;5044783;28;20241;-89
2022/01/19 08:57:04;;;;;;;12.47;7.97;;;;;;;;;;5021968;28;20215;-89
2022/01/19 08:59:31;;;;;;;15.73;8.90;;;;;;;;;;5013462;28;20223;-89
2022/01/19 09:01:59;;;;;;;15.47;8.70;;;;;;;;;;5038403;28;20791;-89
2022/01/19 09:04:34;;;;;;;17.63;8.37;;;;;;;;;;5022368;28;20203;-89
2022/01/19 09:07:02;;;;;;;15.30;8.23;;;;;;;;;;5012725;28;20268;-88
2022/01/19 09:09:29;;;;;;;15.80;9.17;;;;;;;;;;5040065;28;20214;-89
2022/01/19 09:11:56;;;;;;;11.70;8.33;;;;;;;;;;5019059;28;20203;-88
2022/01/19 09:14:24;;;;;;;10.93;8.33;;;;;;;;;;5010065;28;20227;-91
2022/01/19 09:16:51;;;;;;;15.00;9.23;;;;;;;;;;5025184;28;20251;-89
2022/01/19 09:19:19;;;;;;;13.37;9.03;;;;;;;;;;5023050;28;20225;-88
2022/01/19 09:21:48;;;;;;;15.23;9.70;;;;;;;;;;5022446;28;20265;-89
2022/01/19 09:24:15;;;;;;;13.23;9.00;;;;;;;;;;5018264;28;20206;-89
2022/01/19 09:26:42;;;;;;;14.80;10.07;;;;;;;;;;5019373;28;20288;-89
2022/01/19 09:29:10;;;;;;;14.73;10.07;;;;;;;;;;5025029;28;20234;-90
2022/01/19 09:31:44;;;;;;;14.20;9.03;;;;;;;;;;5023350;28;20683;-89
2022/01/19 09:34:15;;;;;;;12.73;8.93;;;;;;;;;;5017190;28;20206;-89
2022/01/19 09:36:46;;;;;;;9.43;6.50;;;;;;;;;;5022258;28;20294;-89
2022/01/19 09:39:16;;;;;;;10.70;7.97;;;;;;;;;;5019776;28;20237;-89
2022/01/19 09:41:45;;;;;;;13.07;8.03;;;;;;;;;;5016437;28;20644;-89
2022/01/19 09:44:12;;;;;;;9.70;7.00;;;;;;;;;;5024828;28;20259;-91
2022/01/19 09:46:40;;;;;;;12.03;7.00;;;;;;;;;;5036886;28;20339;-88
2022/01/19 09:49:07;;;;;;;12.60;7.80;;;;;;;;;;5020732;28;20621;-91
2022/01/19 09:51:35;;;;;;;9.63;6.93;;;;;;;;;;5008205;28;20694;-89
2022/01/19 09:54:02;;;;;;;12.20;7.40;;;;;;;;;;5044642;28;20210;-88
2022/01/19 09:56:31;;;;;;;9.97;7.47;;;;;;;;;;5027460;28;20286;-92
2022/01/19 09:58:59;;;;;;;12.27;7.77;;;;;;;;;;5009559;28;20285;-89
2022/01/19 10:01:26;;;;;;;10.17;8.00;;;;;;;;;;5006289;28;20211;-91
2022/01/19 10:03:54;;;;;;;11.80;7.17;;;;;;;;;;5032308;28;20233;-88
2022/01/19 10:06:22;;;;;;;9.63;6.57;;;;;;;;;;5024055;28;20248;-89
2022/01/19 10:08:51;;;;;;;10.07;7.53;;;;;;;;;;5012974;28;20215;-88
2022/01/19 10:11:21;;;;;;;12.60;7.70;;;;;;;;;;5011106;28;20602;-88
2022/01/19 10:19:22;;;;;;;10.77;7.17;;;;;;;;;;5016066;28;20260;-90
2022/01/19 10:21:56;;;;;;;10.23;8.00;;;;;;;;;;5027632;28;20237;-88
2022/01/19 10:24:33;;;;;;;11.13;7.37;;;;;;;;;;5035197;28;20210;-89
2022/01/19 10:27:15;;;;;;;12.63;7.40;;;;;;;;;;5024396;28;20255;-89
2022/01/19 10:29:44;;;;;;;11.70;7.37;;;;;;;;;;5034152;28;20245;-88
2022/01/19 10:32:11;;;;;;;12.80;7.90;;;;;;;;;;5046404;28;20209;-90
2022/01/19 10:34:39;;;;;;;10.70;7.43;;;;;;;;;;5047709;28;20226;-88
2022/01/19 10:37:06;;;;;;;11.07;8.13;;;;;;;;;;5034361;28;20241;-90
2022/01/19 10:39:41;;;;;;;9.73;7.67;;;;;;;;;;5026360;28;20667;-89
2022/01/19 10:42:09;;;;;;;12.13;7.57;;;;;;;;;;5031714;28;20735;-91
2022/01/19 10:44:38;;;;;;;9.87;7.97;;;;;;;;;;5019048;28;20203;-89
2022/01/19 10:47:07;;;;;;;11.03;7.80;;;;;;;;;;5023894;28;20211;-88
2022/01/19 10:49:49;;;;;;;10.53;7.53;;;;;;;;;;5028733;28;20732;-89
2022/01/19 10:52:36;;;;;;;9.97;7.27;;;;;;;;;;5020648;28;20230;-91
2022/01/19 10:55:05;;;;;;;13.13;7.57;;;;;;;;;;5034897;28;20224;-90
2022/01/19 10:57:33;;;;;;;10.33;7.07;;;;;;;;;;5022446;28;20268;-88
2022/01/19 11:00:11;;;;;;;12.27;7.30;;;;;;;;;;5014332;28;20260;-91
2022/01/19 11:02:40;;;;;;;12.20;7.53;;;;;;;;;;5027967;28;20907;-88
2022/01/19 11:05:07;;;;;;;9.80;7.30;;;;;;;;;;5029147;28;20344;-90
2022/01/19 11:07:35;;;;;;;7.90;5.90;;;;;;;;;;5041961;28;20214;-88
2022/01/19 11:10:22;;;;;;;10.00;7.33;;;;;;;;;;5035895;28;20198;-88
2022/01/19 11:12:53;;;;;;;8.73;6.80;;;;;;;;;;5028807;28;20260;-88
2022/01/19 11:15:20;;;;;;;11.03;7.13;;;;;;;;;;5020799;28;20289;-89
2022/01/19 11:17:50;;;;;;;10.27;7.13;;;;;;;;;;5034970;28;20640;-88
2022/01/19 11:20:19;;;;;;;11.03;7.23;;;;;;;;;;5024691;28;20218;-89
2022/01/19 11:23:04;;;;;;;9.43;6.80;;;;;;;;;;5007530;28;20207;-88
2022/01/19 11:25:35;;;;;;;14.97;8.03;;;;;;;;;;5012717;28;20215;-88
2022/01/19 11:28:02;;;;;;;12.80;7.27;;;;;;;;;;5022089;28;20258;-91
2022/01/19 11:30:31;;;;;;;9.93;7.47;;;;;;;;;;5025697;28;20209;-89
2022/01/19 11:33:14;;;;;;;10.13;7.10;;;;;;;;;;5011905;28;20207;-89
2022/01/19 11:35:44;;;;;;;12.27;7.10;;;;;;;;;;5030484;28;20788;-90
2022/01/19 11:38:32;;;;;;;11.93;7.37;;;;;;;;;;5041326;28;20225;-88
2022/01/19 11:41:00;;;;;;;10.53;6.90;;;;;;;;;;5036102;28;20250;-89
2022/01/19 11:43:29;;;;;;;11.00;7.50;;;;;;;;;;5030063;28;20297;-89
2022/01/19 11:45:56;;;;;;;11.30;6.43;;;;;;;;;;5027573;28;20206;-92
2022/01/19 11:48:26;;;;;;;8.80;6.20;;;;;;;;;;5034584;28;20226;-90
2022/01/19 11:50:54;;;;;;;10.47;6.60;;;;;;;;;;5014155;28;20230;-91
2022/01/19 11:53:22;;;;;;;10.07;6.40;;;;;;;;;;5019973;28;20316;-89
2022/01/19 11:56:02;;;;;;;9.73;6.50;;;;;;;;;;5021824;28;20203;-89
2022/01/19 11:58:29;;;;;;;8.87;7.13;;;;;;;;;;5021074;28;20249;-89
2022/01/19 12:00:58;;;;;;;8.77;6.57;;;;;;;;;;5017005;28;20215;-90
2022/01/19 12:03:28;;;;;;;8.50;6.27;;;;;;;;;;5022920;28;20211;-89
2022/01/19 12:05:56;;;;;;;9.83;6.37;;;;;;;;;;5038252;28;20270;-89
2022/01/19 12:08:29;;;;;;;7.80;5.90;;;;;;;;;;5027576;28;20270;-89
2022/01/19 12:10:58;;;;;;;6.43;4.10;;;;;;;;;;5016866;28;20203;-90
2022/01/19 12:16:51;;;;;;;7.70;6.13;;;;;;;;;;5011326;28;20199;-89
2022/01/19 12:19:23;;;;;;;8.30;5.80;;;;;;;;;;5017590;28;20238;-92
2022/01/19 12:21:53;;;;;;;8.57;6.40;;;;;;;;;;5018528;28;20210;-90
2022/01/19 12:24:26;;;;;;;12.87;7.13;;;;;;;;;;5030651;28;20222;-89
2022/01/19 12:26:59;;;;;;;12.87;6.53;;;;;;;;;;5030526;28;20222;-90
2022/01/19 12:29:46;;;;;;;12.00;6.60;;;;;;;;;;5015382;28;20587;-90
2022/01/19 12:32:37;;;;;;;10.93;6.63;;;;;;;;;;5032506;28;20256;-90
2022/01/19 12:35:11;;;;;;;10.47;7.30;;;;;;;;;;5033459;28;20210;-90
2022/01/19 12:37:40;;;;;;;9.27;6.13;;;;;;;;;;5015525;28;20242;-90
2022/01/19 12:40:26;;;;;;;10.80;6.27;;;;;;;;;;5034182;28;20215;-89
2022/01/19 12:42:55;;;;;;;8.13;5.50;;;;;;;;;;5038779;28;20203;-89
2022/01/19 12:45:25;;;;;;;8.33;5.47;;;;;;;;;;5014014;28;20313;-90
2022/01/19 12:47:53;;;;;;;8.80;5.57;;;;;;;;;;5019221;28;20230;-90
2022/01/19 12:50:39;;;;;;;10.67;6.60;;;;;;;;;;5025628;28;20198;-92
2022/01/19 12:53:10;;;;;;;8.07;5.53;;;;;;;;;;5023529;28;20202;-92
2022/01/19 12:55:38;;;;;;;12.80;5.87;;;;;;;;;;5039680;28;20624;-93
2022/01/19 12:58:14;;;;;;;9.70;6.77;;;;;;;;;;5046733;28;20688;-90
2022/01/19 13:00:42;;;;;;;7.93;6.27;;;;;;;;;;5030031;28;20229;-90
2022/01/19 13:03:17;;;;;;;12.67;7.20;;;;;;;;;;5027664;28;20249;-93
2022/01/19 13:05:50;;;;;;;9.83;6.80;;;;;;;;;;5019441;28;20206;-90
2022/01/19 13:08:29;;;;;;;10.27;6.73;;;;;;;;;;5029065;28;20747;-94
2022/01/19 13:11:04;;;;;;;12.77;7.73;;;;;;;;;;5023840;28;20298;-94
2022/01/19 13:13:32;;;;;;;13.23;7.17;;;;;;;;;;5006840;28;21012;-91
2022/01/19 13:16:00;;;;;;;14.03;8.43;;;;;;;;;;5018843;28;20261;-90
2022/01/19 13:18:34;;;;;;;12.53;7.23;;;;;;;;;;5023458;28;20219;-89
2022/01/19 13:21:04;;;;;;;12.90;8.47;;;;;;;;;;5022463;28;20621;-90
2022/01/19 13:23:33;;;;;;;13.10;7.73;;;;;;;;;;5021059;28;20226;-90
2022/01/19 13:26:01;;;;;;;11.90;7.40;;;;;;;;;;5025065;28;20206;-89
2022/01/19 13:28:30;;;;;;;13.50;8.40;;;;;;;;;;5023763;28;20269;-89
2022/01/19 13:30:59;;;;;;;12.90;8.57;;;;;;;;;;5009243;28;20227;-89
2022/01/19 13:33:28;;;;;;;15.80;9.23;;;;;;;;;;5018415;28;20272;-90
2022/01/19 13:36:03;;;;;;;14.87;8.90;;;;;;;;;;5029478;28;20209;-90
2022/01/19 13:38:31;;;;;;;13.30;8.13;;;;;;;;;;5023858;28;20225;-90
2022/01/19 13:41:09;;;;;;;12.07;8.10;;;;;;;;;;5024265;28;20231;-90
2022/01/19 13:43:36;;;;;;;11.30;7.77;;;;;;;;;;5027065;28;20720;-90
2022/01/19 13:46:13;;;;;;;14.17;8.00;;;;;;;;;;5026531;28;20237;-90
2022/01/19 13:48:43;;;;;;;12.43;8.33;;;;;;;;;;5014755;28;20590;-89
2022/01/19 13:51:14;;;;;;;13.50;8.27;;;;;;;;;;5013722;28;20293;-89
2022/01/19 13:53:42;;;;;;;11.63;8.00;;;;;;;;;;5025889;28;20608;-89
2022/01/19 13:56:11;;;;;;;14.90;8.77;;;;;;;;;;5036810;28;20202;-91
2022/01/19 13:58:40;;;;;;;13.73;7.50;;;;;;;;;;5028088;28;20281;-90
2022/01/19 14:01:10;;;;;;;15.43;8.10;;;;;;;;;;5017633;28;20223;-89
2022/01/19 14:03:48;;;;;;;9.90;6.87;;;;;;;;;;5018699;28;20230;-90
2022/01/19 14:06:25;;;;;;;13.30;7.37;;;;;;;;;;5007598;28;20202;-90
2022/01/19 14:09:03;;;;;;;9.07;5.73;;;;;;;;;;5011550;28;20236;-90
2022/01/19 14:11:32;;;;;;;12.97;6.80;;;;;;;;;;5020784;28;20294;-89
2022/01/19 14:14:00;;;;;;;10.33;6.90;;;;;;;;;;5028198;28;20237;-92
2022/01/19 14:16:30;;;;;;;8.63;5.47;;;;;;;;;;5022614;28;20219;-92
2022/01/19 14:19:06;;;;;;;13.10;7.00;;;;;;;;;;5017900;28;20226;-89
2022/01/19 14:21:35;;;;;;;12.77;6.43;;;;;;;;;;5030096;28;20230;-90
2022/01/19 14:24:03;;;;;;;9.67;6.10;;;;;;;;;;5008320;28;20207;-92
2022/01/19 14:26:31;;;;;;;9.30;6.27;;;;;;;;;;5015663;28;20607;-92
2022/01/19 14:29:11;;;;;;;8.63;6.43;;;;;;;;;;5028167;28;20230;-89
2022/01/19 14:31:48;;;;;;;11.80;7.53;;;;;;;;;;5026860;28;20199;-90
2022/01/19 14:34:15;;;;;;;10.63;7.03;;;;;;;;;;5024629;28;20218;-90
2022/01/19 14:36:44;;;;;;;12.50;6.33;;;;;;;;;;5023431;28;20290;-91
2022/01/19 14:39:11;;;;;;;10.10;7.13;;;;;;;;;;5036740;28;20725;-89
2022/01/19 14:41:39;;;;;;;12.93;6.97;;;;;;;;;;5027172;28;20234;-91
2022/01/19 14:44:09;;;;;;;8.90;5.60;;;;;;;;;;5016649;28;20218;-90
2022/01/19 14:46:40;;;;;;;10.77;6.50;;;;;;;;;;5018024;28;20213;-90
2022/01/19 14:49:08;;;;;;;10.23;6.53;;;;;;;;;;5020354;28;20266;-89
2022/01/19 14:51:38;;;;;;;10.27;6.10;;;;;;;;;;5008057;28;20656;-89
2022/01/19 14:54:11;;;;;;;11.50;6.13;;;;;;;;;;5022970;28;20328;-90
2022/01/19 14:56:38;;;;;;;9.83;6.50;;;;;;;;;;5037406;28;20292;-90
2022/01/19 14:59:07;;;;;;;13.77;6.73;;;;;;;;;;5011489;28;20227;-89
2022/01/19 15:01:35;;;;;;;19.60;12.70;;;;;;;;;;5007339;28;20272;-87
2022/01/19 15:04:04;;;;;;;18.77;13.23;;;;;;;;;;5030396;28;20209;-87
2022/01/19 15:06:31;;;;;;;11.90;9.00;;;;;;;;;;5035824;28;20237;-86
2022/01/19 15:08:58;;;;;;;9.27;6.30;;;;;;;;;;5044539;28;20226;-86
2022/01/19 15:11:27;;;;;;;6.87;5.30;;;;;;;;;;5027443;28;20269;-88
2022/01/19 15:13:55;;;;;;;7.67;5.17;;;;;;;;;;5042350;28;20266;-86
2022/01/19 15:16:22;;;;;;;5.53;4.83;;;;;;;;;;5026886;28;20206;-89
2022/01/19 15:18:51;;;;;;;5.40;3.87;;;;;;;;;;5025432;28;20234;-88
2022/01/19 15:21:28;;;;;;;;;;;;;;;;;;;;;
2022/01/19 15:23:59;;;;;;;5.87;3.97;;;;;;;;;;5025186;28;20226;-88
2022/01/19 15:26:28;;;;;;;6.93;4.20;;;;;;;;;;5011940;28;20648;-88
2022/01/19 15:28:55;;;;;;;3.63;3.07;;;;;;;;;;5039433;28;20231;-87
2022/01/19 15:31:22;;;;;;;8.67;5.33;;;;;;;;;;5036398;28;20203;-87
2022/01/19 15:33:50;;;;;;;6.47;4.93;;;;;;;;;;5016594;28;20219;-87
2022/01/19 15:36:17;;;;;;;8.57;5.80;;;;;;;;;;5015270;28;20240;-87
2022/01/19 15:38:45;;;;;;;7.87;5.27;;;;;;;;;;5041034;28;20246;-87
2022/01/19 15:41:13;;;;;;;8.70;6.23;;;;;;;;;;5035164;28;20260;-87
2022/01/19 15:43:41;;;;;;;6.00;4.97;;;;;;;;;;5036434;28;20258;-87
2022/01/19 15:46:09;;;;;;;9.83;5.97;;;;;;;;;;5031841;28;20214;-87
2022/01/19 15:48:36;;;;;;;7.57;5.50;;;;;;;;;;5028951;28;20245;-87
2022/01/19 15:51:04;;;;;;;9.90;6.43;;;;;;;;;;5045581;28;20252;-87
2022/01/19 15:53:34;;;;;;;6.63;4.27;;;;;;;;;;5055472;28;20558;-87
2022/01/19 15:56:02;;;;;;;8.87;5.53;;;;;;;;;;5029750;28;20207;-87
2022/01/19 15:58:29;;;;;;;9.10;5.33;;;;;;;;;;5038235;28;20246;-87
2022/01/19 16:00:58;;;;;;;11.17;6.87;;;;;;;;;;5052783;28;20256;-87
2022/01/19 16:03:25;;;;;;;8.33;6.10;;;;;;;;;;5051525;28;20210;-87
2022/01/19 16:05:54;;;;;;;8.50;5.53;;;;;;;;;;5031901;28;20207;-88
2022/01/19 16:08:22;;;;;;;9.30;5.57;;;;;;;;;;5043300;28;20759;-88